createdAt,value
2019-03-01T00:01:09.749Z,7.85
2019-03-01T00:03:38.559Z,7.87
2019-03-01T00:06:22.292Z,7.87
2019-03-01T00:08:53.817Z,7.84
2019-03-01T00:11:53.686Z,7.74
2019-03-01T00:14:36.830Z,7.71
2019-03-01T00:17:33.958Z,7.70
2019-03-01T00:20:14.320Z,7.70
2019-03-01T00:23:02.313Z,7.69
2019-03-01T00:25:36.402Z,7.69
2019-03-01T00:28:35.251Z,7.64
2019-03-01T00:31:24.907Z,7.64
2019-03-01T00:34:05.140Z,7.60
2019-03-01T00:36:53.156Z,7.56
2019-03-01T00:39:36.827Z,7.50
2019-03-01T00:42:23.543Z,7.49
2019-03-01T00:44:52.010Z,7.50
2019-03-01T00:47:20.567Z,7.46
2019-03-01T00:49:49.039Z,7.45
2019-03-01T00:52:17.656Z,7.38
2019-03-01T00:54:46.260Z,7.38
2019-03-01T00:57:14.891Z,7.37
2019-03-01T00:59:43.436Z,7.36
2019-03-01T01:02:12.045Z,7.35
2019-03-01T01:04:40.590Z,7.36
2019-03-01T01:07:09.155Z,7.26
2019-03-01T01:15:10.661Z,7.24
2019-03-01T01:17:39.234Z,7.19
2019-03-01T01:20:09.763Z,7.18
2019-03-01T01:22:38.382Z,7.11
2019-03-01T01:25:07.017Z,7.06
2019-03-01T01:27:35.586Z,7.03
2019-03-01T01:30:06.132Z,6.98
2019-03-01T01:32:34.697Z,6.96
2019-03-01T01:35:03.311Z,6.89
2019-03-01T01:37:31.877Z,6.90
2019-03-01T01:40:00.460Z,6.92
2019-03-01T01:42:29.044Z,6.88
2019-03-01T01:44:57.580Z,6.86
2019-03-01T01:47:26.134Z,6.82
2019-03-01T01:49:54.672Z,6.83
2019-03-01T01:52:23.248Z,6.83
2019-03-01T01:54:51.857Z,6.79
2019-03-01T01:57:20.404Z,6.80
2019-03-01T01:59:48.881Z,6.81
2019-03-01T02:02:17.496Z,6.78
2019-03-01T02:04:46.111Z,6.74
2019-03-01T02:07:14.727Z,6.76
2019-03-01T02:09:43.336Z,6.72
2019-03-01T02:12:11.870Z,6.70
2019-03-01T02:14:40.506Z,6.69
2019-03-01T02:17:09.042Z,6.63
2019-03-01T02:19:37.680Z,6.56
2019-03-01T02:22:06.284Z,6.54
2019-03-01T02:24:34.822Z,6.52
2019-03-01T02:27:20.674Z,6.51
2019-03-01T02:29:49.352Z,6.46
2019-03-01T02:32:26.528Z,6.43
2019-03-01T02:34:55.037Z,6.43
2019-03-01T02:37:23.571Z,6.43
2019-03-01T02:39:52.306Z,6.46
2019-03-01T02:42:20.854Z,6.40
2019-03-01T02:44:49.397Z,6.40
2019-03-01T02:47:17.973Z,6.39
2019-03-01T02:49:46.581Z,6.36
2019-03-01T02:52:15.120Z,6.39
2019-03-01T02:54:43.588Z,6.38
2019-03-01T02:57:12.146Z,6.35
2019-03-01T02:59:40.748Z,6.32
2019-03-01T03:02:09.384Z,6.31
2019-03-01T03:04:37.981Z,6.28
2019-03-01T03:07:08.260Z,6.28
2019-03-01T03:09:36.791Z,6.26
2019-03-01T03:12:05.388Z,6.26
2019-03-01T03:14:33.854Z,6.26
2019-03-01T03:17:02.946Z,6.23
2019-03-01T03:19:31.596Z,6.21
2019-03-01T03:22:00.057Z,6.13
2019-03-01T03:24:28.620Z,6.09
2019-03-01T03:26:57.162Z,6.08
2019-03-01T03:29:25.724Z,6.03
2019-03-01T03:31:54.290Z,6.01
2019-03-01T03:34:22.826Z,5.95
2019-03-01T03:36:51.376Z,5.91
2019-03-01T03:39:19.829Z,5.90
2019-03-01T03:41:48.472Z,5.84
2019-03-01T03:44:17.228Z,5.90
2019-03-01T03:46:45.773Z,5.89
2019-03-01T03:49:14.243Z,5.93
2019-03-01T03:51:42.808Z,5.96
2019-03-01T03:54:11.257Z,5.92
2019-03-01T03:56:39.880Z,5.95
2019-03-01T03:59:08.498Z,5.93
2019-03-01T04:01:37.120Z,5.91
2019-03-01T04:04:05.741Z,5.91
2019-03-01T04:06:34.347Z,5.89
2019-03-01T04:09:04.566Z,5.89
2019-03-01T04:11:33.208Z,5.84
2019-03-01T04:14:01.760Z,5.84
2019-03-01T04:16:30.366Z,5.84
2019-03-01T04:18:58.872Z,5.85
2019-03-01T04:21:27.574Z,5.82
2019-03-01T04:23:56.129Z,5.80
2019-03-01T04:26:24.680Z,5.76
2019-03-01T04:28:53.212Z,5.75
2019-03-01T04:31:21.688Z,5.72
2019-03-01T04:33:50.157Z,5.71
2019-03-01T04:36:18.702Z,5.72
2019-03-01T04:38:47.277Z,5.69
2019-03-01T04:41:15.744Z,5.66
2019-03-01T04:43:44.391Z,5.65
2019-03-01T04:46:12.846Z,5.57
2019-03-01T04:48:41.498Z,5.57
2019-03-01T04:51:10.539Z,5.54
2019-03-01T04:53:39.074Z,5.54
2019-03-01T04:56:07.691Z,5.53
2019-03-01T04:58:36.231Z,5.51
2019-03-01T05:01:05.222Z,5.51
2019-03-01T05:03:33.769Z,5.44
2019-03-01T05:06:02.409Z,5.40
2019-03-01T05:08:30.874Z,5.36
2019-03-01T05:10:59.478Z,5.30
2019-03-01T05:13:27.964Z,5.24
2019-03-01T05:15:56.462Z,5.24
2019-03-01T05:18:25.008Z,5.19
2019-03-01T05:20:53.550Z,5.19
2019-03-01T05:23:22.028Z,5.20
2019-03-01T05:25:50.567Z,5.16
2019-03-01T05:28:19.111Z,5.17
2019-03-01T05:30:47.657Z,5.10
2019-03-01T05:33:16.265Z,5.08
2019-03-01T05:35:44.883Z,4.94
2019-03-01T05:38:21.575Z,4.83
2019-03-01T05:40:43.730Z,4.75
2019-03-01T05:43:12.261Z,4.72
2019-03-01T05:45:40.730Z,4.70
2019-03-01T05:48:09.298Z,4.58
2019-03-01T05:50:37.902Z,4.50
2019-03-01T05:53:06.397Z,4.53
2019-03-01T05:55:34.928Z,4.51
2019-03-01T05:58:35.554Z,4.45
2019-03-01T06:01:13.197Z,4.47
2019-03-01T06:03:59.782Z,4.41
2019-03-01T06:06:40.188Z,4.38
2019-03-01T06:09:28.205Z,4.43
2019-03-01T06:12:19.130Z,4.50
2019-03-01T06:15:13.124Z,4.50
2019-03-01T06:18:00.830Z,4.53
2019-03-01T06:23:41.333Z,4.64
2019-03-01T06:26:18.700Z,4.55
2019-03-01T06:29:02.131Z,4.46
2019-03-01T06:31:54.888Z,4.52
2019-03-01T06:34:38.173Z,4.57
2019-03-01T06:37:24.804Z,4.67
2019-03-01T06:40:23.670Z,4.73
2019-03-01T06:42:57.805Z,4.76
2019-03-01T06:45:48.181Z,4.86
2019-03-01T06:48:18.392Z,4.97
2019-03-01T06:50:51.440Z,5.02
2019-03-01T06:53:19.990Z,5.13
2019-03-01T06:55:48.628Z,5.22
2019-03-01T06:58:20.047Z,5.47
2019-03-01T07:00:50.677Z,5.61
2019-03-01T07:03:19.389Z,5.83
2019-03-01T07:05:47.996Z,5.97
2019-03-01T07:08:16.535Z,6.15
2019-03-01T07:10:45.012Z,6.36
2019-03-01T07:13:13.494Z,6.53
2019-03-01T07:15:42.034Z,6.71
2019-03-01T07:18:10.721Z,6.84
2019-03-01T07:20:39.336Z,6.94
2019-03-01T07:23:07.799Z,7.00
2019-03-01T07:25:36.365Z,7.13
2019-03-01T07:28:04.976Z,7.18
2019-03-01T07:30:33.608Z,7.28
2019-03-01T07:33:02.176Z,7.42
2019-03-01T07:35:30.715Z,7.51
2019-03-01T07:37:59.231Z,7.62
2019-03-01T07:40:27.787Z,7.65
2019-03-01T07:42:56.413Z,7.70
2019-03-01T07:45:24.893Z,7.87
2019-03-01T07:47:53.365Z,7.98
2019-03-01T07:50:21.848Z,8.08
2019-03-01T07:52:50.386Z,8.19
2019-03-01T07:55:19.036Z,8.25
2019-03-01T07:57:49.759Z,8.30
2019-03-01T08:00:18.209Z,8.12
2019-03-01T08:02:46.850Z,8.04
2019-03-01T08:05:16.567Z,8.23
2019-03-01T08:07:55.302Z,8.42
2019-03-01T08:10:20.540Z,8.53
2019-03-01T08:12:47.431Z,8.61
2019-03-01T08:15:17.317Z,8.59
2019-03-01T08:17:45.991Z,8.53
2019-03-01T08:20:16.099Z,8.48
2019-03-01T08:22:48.682Z,8.36
2019-03-01T08:25:15.057Z,8.45
2019-03-01T08:27:46.346Z,8.54
2019-03-01T08:30:17.722Z,8.57
2019-03-01T08:32:46.363Z,8.63
2019-03-01T08:35:18.582Z,8.75
2019-03-01T08:37:49.828Z,8.91
2019-03-01T08:40:18.163Z,9.09
2019-03-01T08:42:47.103Z,9.18
2019-03-01T08:45:20.203Z,9.35
2019-03-01T08:47:49.161Z,9.67
2019-03-01T08:50:18.046Z,9.89
2019-03-01T08:52:47.200Z,9.94
2019-03-01T08:55:18.364Z,9.93
2019-03-01T08:57:46.929Z,10.00
2019-03-01T09:00:26.699Z,10.01
2019-03-01T09:02:56.628Z,10.21
2019-03-01T09:05:25.165Z,10.61
2019-03-01T09:07:53.712Z,11.07
2019-03-01T09:10:22.350Z,11.51
2019-03-01T09:12:50.964Z,11.58
2019-03-01T09:15:19.605Z,11.86
2019-03-01T09:17:48.181Z,12.16
2019-03-01T09:20:16.995Z,12.37
2019-03-01T09:22:45.733Z,12.42
2019-03-01T09:25:15.537Z,12.27
2019-03-01T09:27:44.119Z,11.93
2019-03-01T09:30:15.872Z,11.42
2019-03-01T09:32:44.478Z,11.17
2019-03-01T09:35:20.511Z,10.89
2019-03-01T09:37:49.020Z,10.90
2019-03-01T09:40:17.664Z,10.95
2019-03-01T09:42:47.404Z,11.20
2019-03-01T09:45:16.419Z,11.57
2019-03-01T09:47:44.897Z,12.06
2019-03-01T09:50:13.715Z,12.52
2019-03-01T09:52:42.261Z,12.92
2019-03-01T09:55:12.301Z,13.50
2019-03-01T09:57:40.914Z,13.90
2019-03-01T10:00:15.483Z,14.13
2019-03-01T10:02:44.025Z,14.37
2019-03-01T10:05:14.066Z,14.73
2019-03-01T10:07:42.678Z,15.06
2019-03-01T10:10:13.403Z,15.18
2019-03-01T10:12:42.031Z,15.47
2019-03-01T10:15:12.601Z,15.87
2019-03-01T10:17:41.249Z,16.13
2019-03-01T10:20:12.797Z,16.58
2019-03-01T10:22:41.420Z,16.63
2019-03-01T10:25:17.972Z,16.33
2019-03-01T10:27:46.556Z,15.98
2019-03-01T10:30:17.272Z,16.19
2019-03-01T10:32:45.878Z,15.80
2019-03-01T10:35:15.602Z,15.28
2019-03-01T10:37:44.309Z,15.24
2019-03-01T10:40:26.497Z,15.25
2019-03-01T10:42:55.105Z,15.33
2019-03-01T10:45:28.380Z,15.29
2019-03-01T10:47:56.985Z,15.22
2019-03-01T10:50:25.629Z,14.98
2019-03-01T10:52:54.243Z,14.90
2019-03-01T10:55:23.055Z,14.59
2019-03-01T10:57:51.612Z,14.41
2019-03-01T11:00:30.460Z,14.41
2019-03-01T11:02:59.434Z,14.30
2019-03-01T11:05:28.028Z,13.79
2019-03-01T11:07:57.145Z,13.59
2019-03-01T11:10:28.681Z,13.46
2019-03-01T11:12:57.217Z,13.24
2019-03-01T11:15:25.860Z,13.00
2019-03-01T11:17:54.469Z,12.74
2019-03-01T11:20:23.387Z,12.89
2019-03-01T11:22:52.045Z,12.88
2019-03-01T11:25:22.765Z,12.88
2019-03-01T11:27:51.308Z,12.92
2019-03-01T11:30:22.863Z,12.93
2019-03-01T11:32:51.468Z,12.60
2019-03-01T11:35:20.172Z,12.57
2019-03-01T11:37:48.851Z,12.49
2019-03-01T11:40:22.710Z,12.36
2019-03-01T11:42:51.321Z,12.24
2019-03-01T11:45:19.977Z,12.16
2019-03-01T11:47:48.602Z,12.11
2019-03-01T11:50:24.607Z,11.93
2019-03-01T11:52:53.625Z,11.63
2019-03-01T11:55:22.365Z,11.32
2019-03-01T11:57:51.075Z,11.00
2019-03-01T12:00:27.590Z,10.76
2019-03-01T12:02:56.223Z,10.34
2019-03-01T12:05:24.840Z,10.25
2019-03-01T12:07:53.490Z,10.16
2019-03-01T12:10:26.795Z,10.18
2019-03-01T12:12:55.448Z,10.12
2019-03-01T12:15:24.071Z,10.16
2019-03-01T12:17:52.690Z,10.24
2019-03-01T12:20:23.668Z,10.27
2019-03-01T12:22:52.247Z,10.25
2019-03-01T12:25:20.784Z,10.35
2019-03-01T12:27:49.391Z,10.37
2019-03-01T12:30:20.437Z,10.36
2019-03-01T12:32:49.085Z,10.21
2019-03-01T12:35:17.689Z,10.24
2019-03-01T12:37:46.317Z,10.21
2019-03-01T12:40:20.386Z,10.04
2019-03-01T12:42:48.927Z,9.99
2019-03-01T12:45:17.532Z,9.93
2019-03-01T12:47:46.158Z,9.99
2019-03-01T12:50:15.150Z,9.94
2019-03-01T12:52:44.057Z,9.92
2019-03-01T12:55:20.825Z,9.93
2019-03-01T12:57:49.467Z,9.85
2019-03-01T13:00:35.328Z,9.81
2019-03-01T13:03:05.068Z,9.74
2019-03-01T13:05:34.232Z,9.73
2019-03-01T13:08:02.864Z,9.59
2019-03-01T13:10:36.713Z,9.47
2019-03-01T13:13:08.411Z,9.45
2019-03-01T13:15:37.143Z,9.48
2019-03-01T13:18:05.714Z,9.46
2019-03-01T13:20:37.279Z,9.39
2019-03-01T13:23:06.134Z,9.25
2019-03-01T13:25:34.952Z,9.22
2019-03-01T13:28:03.550Z,9.07
2019-03-01T13:30:35.451Z,8.95
2019-03-01T13:33:03.633Z,8.89
2019-03-01T13:35:32.294Z,8.87
2019-03-01T13:38:00.871Z,8.90
2019-03-01T13:40:29.411Z,8.93
2019-03-01T13:42:57.957Z,8.79
2019-03-01T13:45:26.960Z,8.69
2019-03-01T13:47:55.555Z,8.59
2019-03-01T13:50:24.302Z,8.34
2019-03-01T13:52:52.918Z,8.20
2019-03-01T13:55:23.466Z,7.92
2019-03-01T13:57:51.978Z,8.00
2019-03-01T14:00:21.583Z,8.00
2019-03-01T14:02:50.392Z,7.89
2019-03-01T14:05:19.333Z,7.71
2019-03-01T14:07:48.783Z,7.60
2019-03-01T14:10:19.420Z,7.59
2019-03-01T14:12:48.051Z,7.45
2019-03-01T14:15:17.756Z,7.32
2019-03-01T14:17:46.402Z,7.35
2019-03-01T14:20:21.101Z,7.27
2019-03-01T14:22:49.874Z,7.28
2019-03-01T14:25:18.584Z,7.15
2019-03-01T14:27:47.207Z,7.09
2019-03-01T14:30:25.292Z,7.01
2019-03-01T14:32:56.885Z,6.90
2019-03-01T14:35:25.970Z,6.84
2019-03-01T14:37:55.332Z,6.78
2019-03-01T14:40:24.333Z,6.79
2019-03-01T14:42:52.943Z,6.75
2019-03-01T14:45:30.014Z,6.73
2019-03-01T14:47:58.552Z,6.71
2019-03-01T14:50:29.980Z,6.65
2019-03-01T14:52:59.021Z,6.60
2019-03-01T14:55:39.583Z,6.55
2019-03-01T14:58:18.957Z,6.43
2019-03-01T15:00:55.305Z,6.35
2019-03-01T15:03:35.646Z,6.27
2019-03-01T15:06:04.760Z,6.21
2019-03-01T15:08:33.476Z,6.18
2019-03-01T15:11:07.942Z,6.22
2019-03-01T15:13:35.890Z,6.23
2019-03-01T15:16:06.070Z,6.21
2019-03-01T15:18:35.174Z,6.17
2019-03-01T15:21:04.001Z,6.21
2019-03-01T15:23:32.641Z,6.16
2019-03-01T15:26:01.265Z,6.16
2019-03-01T15:28:29.874Z,6.18
2019-03-01T15:30:58.509Z,6.17
2019-03-01T15:33:27.048Z,6.14
2019-03-01T15:35:55.629Z,6.10
2019-03-01T15:38:27.687Z,6.08
2019-03-01T15:40:54.420Z,6.09
2019-03-01T15:43:22.917Z,6.09
2019-03-01T15:45:51.513Z,6.03
2019-03-01T15:48:20.079Z,6.03
2019-03-01T15:50:48.687Z,6.01
2019-03-01T15:53:17.257Z,5.97
2019-03-01T15:55:45.773Z,5.92
2019-03-01T15:58:14.388Z,5.91
2019-03-01T16:00:43.016Z,5.89
2019-03-01T16:03:11.647Z,5.87
2019-03-01T16:05:40.295Z,5.83
2019-03-01T16:08:09.252Z,5.76
2019-03-01T16:10:37.905Z,5.71
2019-03-01T16:13:11.618Z,5.71
2019-03-01T16:15:38.756Z,5.72
2019-03-01T16:18:07.240Z,5.64
2019-03-01T16:20:35.873Z,5.65
2019-03-01T16:23:04.514Z,5.62
2019-03-01T16:25:33.044Z,5.60
2019-03-01T16:28:01.627Z,5.60
2019-03-01T16:30:30.234Z,5.75
2019-03-01T16:32:58.701Z,5.76
2019-03-01T16:35:27.333Z,5.77
2019-03-01T16:37:57.957Z,5.71
2019-03-01T16:40:27.820Z,5.67
2019-03-01T16:42:56.427Z,5.65
2019-03-01T16:45:24.978Z,5.64
2019-03-01T16:47:53.540Z,5.61
2019-03-01T16:50:22.066Z,5.59
2019-03-01T16:52:50.686Z,5.53
2019-03-01T16:55:24.409Z,5.51
2019-03-01T16:57:52.292Z,5.44
2019-03-01T17:00:23.489Z,5.44
2019-03-01T17:03:03.847Z,5.41
2019-03-01T17:05:35.746Z,5.36
2019-03-01T17:08:05.770Z,5.34
2019-03-01T17:10:33.252Z,5.32
2019-03-01T17:13:01.859Z,5.34
2019-03-01T17:15:30.524Z,5.34
2019-03-01T17:17:59.149Z,5.32
2019-03-01T17:20:27.749Z,5.30
2019-03-01T17:22:59.805Z,5.30
2019-03-01T17:25:27.645Z,5.26
2019-03-01T17:27:56.474Z,5.21
2019-03-01T17:30:27.967Z,5.15
2019-03-01T17:32:56.507Z,5.11
2019-03-01T17:35:25.143Z,5.08
2019-03-01T17:37:53.758Z,5.06
2019-03-01T17:40:22.618Z,5.05
2019-03-01T17:42:53.180Z,5.04
2019-03-01T17:45:24.430Z,5.02
2019-03-01T17:47:55.197Z,4.94
2019-03-01T17:50:23.173Z,4.79
2019-03-01T17:52:51.806Z,4.65
2019-03-01T17:55:28.010Z,4.42
2019-03-01T17:57:56.590Z,4.12
2019-03-01T18:00:36.452Z,4.07
2019-03-01T18:03:05.787Z,4.13
2019-03-01T18:05:36.931Z,4.13
2019-03-01T18:08:05.042Z,4.13
2019-03-01T18:10:33.655Z,4.19
2019-03-01T18:13:02.188Z,4.17
2019-03-01T18:15:30.802Z,4.08
2019-03-01T18:17:59.416Z,4.01
2019-03-01T18:20:28.054Z,3.96
2019-03-01T18:22:59.354Z,3.86
2019-03-01T18:25:27.230Z,3.85
2019-03-01T18:27:55.758Z,3.90
2019-03-01T18:30:30.022Z,3.92
2019-03-01T18:32:58.702Z,3.85
2019-03-01T18:35:27.309Z,3.81
2019-03-01T18:37:56.166Z,3.86
2019-03-01T18:40:24.773Z,3.75
2019-03-01T18:42:53.418Z,3.82
2019-03-01T18:45:23.061Z,3.84
2019-03-01T18:47:51.681Z,3.91
2019-03-01T18:50:33.817Z,3.95
2019-03-01T18:53:04.009Z,3.99
2019-03-01T18:55:32.871Z,3.93
2019-03-01T18:58:01.464Z,3.80
2019-03-01T19:00:36.894Z,3.68
2019-03-01T19:03:06.214Z,3.72
2019-03-01T19:05:36.609Z,3.79
2019-03-01T19:08:06.157Z,3.83
2019-03-01T19:10:35.481Z,3.85
2019-03-01T19:13:04.184Z,3.87
2019-03-01T19:15:32.818Z,3.91
2019-03-01T19:18:01.540Z,3.97
2019-03-01T19:20:41.534Z,3.98
2019-03-01T19:23:08.688Z,4.00
2019-03-01T19:25:37.261Z,4.02
2019-03-01T19:28:05.871Z,4.06
2019-03-01T19:30:34.487Z,4.09
2019-03-01T19:33:03.415Z,4.10
2019-03-01T19:35:32.051Z,4.11
2019-03-01T19:38:00.652Z,4.15
2019-03-01T19:40:29.293Z,4.15
2019-03-01T19:42:57.903Z,4.12
2019-03-01T19:45:26.508Z,4.13
2019-03-01T19:48:01.560Z,4.07
2019-03-01T19:50:26.784Z,4.08
2019-03-01T19:52:55.420Z,4.07
2019-03-01T19:55:24.042Z,4.05
2019-03-01T19:57:52.541Z,4.06
2019-03-01T20:00:31.983Z,4.03
2019-03-01T20:03:00.464Z,4.01
2019-03-01T20:05:31.642Z,4.00
2019-03-01T20:08:01.632Z,3.97
2019-03-01T20:10:30.244Z,3.93
2019-03-01T20:12:58.851Z,3.92
2019-03-01T20:15:28.791Z,3.92
2019-03-01T20:17:57.407Z,3.92
2019-03-01T20:20:29.851Z,3.87
2019-03-01T20:22:57.764Z,3.84
2019-03-01T20:25:26.294Z,3.82
2019-03-01T20:27:54.863Z,3.81
2019-03-01T20:30:31.173Z,3.81
2019-03-01T20:32:59.721Z,3.80
2019-03-01T20:35:28.358Z,3.81
2019-03-01T20:38:00.051Z,3.78
2019-03-01T20:40:28.249Z,3.74
2019-03-01T20:43:00.451Z,3.72
2019-03-01T20:45:38.612Z,3.69
2019-03-01T20:48:07.251Z,3.69
2019-03-01T20:50:36.638Z,3.65
2019-03-01T20:53:05.360Z,3.64
2019-03-01T20:55:37.144Z,3.59
2019-03-01T20:58:04.399Z,3.61
2019-03-01T21:00:33.001Z,3.65
2019-03-01T21:03:01.547Z,3.62
2019-03-01T21:05:30.556Z,3.52
2019-03-01T21:07:59.497Z,3.45
2019-03-01T21:10:32.581Z,3.41
2019-03-01T21:13:01.122Z,3.40
2019-03-01T21:15:29.860Z,3.41
2019-03-01T21:17:58.822Z,3.34
2019-03-01T21:20:27.576Z,3.32
2019-03-01T21:22:56.353Z,3.34
2019-03-01T21:25:25.594Z,3.35
2019-03-01T21:27:54.197Z,3.31
2019-03-01T21:30:30.967Z,3.27
2019-03-01T21:32:59.570Z,3.24
2019-03-01T21:35:28.300Z,3.23
2019-03-01T21:37:57.107Z,3.25
2019-03-01T21:40:25.960Z,3.24
2019-03-01T21:42:59.844Z,3.21
2019-03-01T21:45:26.792Z,3.21
2019-03-01T21:47:55.394Z,3.19
2019-03-01T21:50:23.958Z,3.23
2019-03-01T21:52:52.617Z,3.23
2019-03-01T21:55:28.587Z,3.20
2019-03-01T21:57:56.320Z,3.18
2019-03-01T22:00:31.365Z,3.11
2019-03-01T22:02:59.137Z,3.05
2019-03-01T22:05:27.859Z,2.99
2019-03-01T22:07:56.466Z,2.96
2019-03-01T22:10:25.029Z,2.96
2019-03-01T22:12:56.881Z,2.95
2019-03-01T22:15:27.718Z,2.88
2019-03-01T22:17:56.778Z,2.85
2019-03-01T22:20:25.425Z,2.83
2019-03-01T22:22:54.074Z,2.81
2019-03-01T22:25:22.780Z,2.74
2019-03-01T22:27:51.435Z,2.75
2019-03-01T22:30:33.099Z,2.70
2019-03-01T22:33:01.624Z,2.63
2019-03-01T22:35:30.176Z,2.63
2019-03-01T22:38:01.006Z,2.56
2019-03-01T22:40:29.513Z,2.49
2019-03-01T22:42:58.284Z,2.47
2019-03-01T22:45:26.889Z,2.45
2019-03-01T22:47:55.389Z,2.45
2019-03-01T22:50:24.887Z,2.41
2019-03-01T22:52:53.504Z,2.41
2019-03-01T22:55:22.119Z,2.41
2019-03-01T22:57:50.784Z,2.40
2019-03-01T23:00:29.949Z,2.43
2019-03-01T23:02:58.687Z,2.40
2019-03-01T23:05:27.293Z,2.30
2019-03-01T23:07:56.799Z,2.28
2019-03-01T23:10:26.033Z,2.29
2019-03-01T23:12:54.574Z,2.28
2019-03-01T23:15:23.212Z,2.25
2019-03-01T23:17:51.761Z,2.21
2019-03-01T23:20:26.321Z,2.22
2019-03-01T23:22:50.589Z,2.22
2019-03-01T23:25:19.101Z,2.20
2019-03-01T23:27:47.647Z,2.16
2019-03-01T23:30:17.396Z,2.15
2019-03-01T23:32:48.762Z,2.11
2019-03-01T23:35:18.161Z,2.03
2019-03-01T23:37:46.611Z,2.02
2019-03-01T23:40:15.625Z,1.95
2019-03-01T23:42:44.186Z,1.82
2019-03-01T23:45:13.681Z,1.76
2019-03-01T23:47:43.151Z,1.74
2019-03-01T23:50:11.771Z,1.62
2019-03-01T23:52:40.266Z,1.52
2019-03-01T23:55:09.276Z,1.46
2019-03-01T23:57:40.883Z,1.41
